sensor_id;sensor_type;location;lat;lon;timestamp;P1;durP1;ratioP1;P2;durP2;ratioP2
31210;SDS011;17836;50.948;3.946;2024-02-26T00:01:46;3.50;;;1.42;;
31210;SDS011;17836;50.948;3.946;2024-02-26T00:04:11;3.05;;;1.38;;
31210;SDS011;17836;50.948;3.946;2024-02-26T00:06:38;2.35;;;1.42;;
31210;SDS011;17836;50.948;3.946;2024-02-26T00:09:05;3.72;;;1.60;;
31210;SDS011;17836;50.948;3.946;2024-02-26T00:11:33;1.60;;;1.50;;
31210;SDS011;17836;50.948;3.946;2024-02-26T00:13:58;2.92;;;1.73;;
31210;SDS011;17836;50.948;3.946;2024-02-26T00:16:26;2.42;;;1.30;;
31210;SDS011;17836;50.948;3.946;2024-02-26T00:18:54;2.53;;;1.75;;
31210;SDS011;17836;50.948;3.946;2024-02-26T00:21:19;2.20;;;1.63;;
31210;SDS011;17836;50.948;3.946;2024-02-26T00:23:44;2.58;;;1.73;;
31210;SDS011;17836;50.948;3.946;2024-02-26T00:26:11;3.72;;;1.60;;
31210;SDS011;17836;50.948;3.946;2024-02-26T00:28:37;2.30;;;1.65;;
31210;SDS011;17836;50.948;3.946;2024-02-26T00:31:02;2.53;;;1.92;;
31210;SDS011;17836;50.948;3.946;2024-02-26T00:33:30;4.03;;;1.60;;
31210;SDS011;17836;50.948;3.946;2024-02-26T00:35:55;4.03;;;1.67;;
31210;SDS011;17836;50.948;3.946;2024-02-26T00:38:21;2.27;;;1.60;;
31210;SDS011;17836;50.948;3.946;2024-02-26T00:40:46;2.90;;;1.37;;
31210;SDS011;17836;50.948;3.946;2024-02-26T00:43:11;3.83;;;1.70;;
31210;SDS011;17836;50.948;3.946;2024-02-26T00:45:37;2.08;;;1.25;;
31210;SDS011;17836;50.948;3.946;2024-02-26T00:48:02;2.33;;;1.40;;
31210;SDS011;17836;50.948;3.946;2024-02-26T00:50:30;3.38;;;1.30;;
31210;SDS011;17836;50.948;3.946;2024-02-26T00:52:55;1.58;;;1.20;;
31210;SDS011;17836;50.948;3.946;2024-02-26T00:55:23;2.50;;;1.30;;
31210;SDS011;17836;50.948;3.946;2024-02-26T00:57:48;1.40;;;1.30;;
31210;SDS011;17836;50.948;3.946;2024-02-26T01:00:13;1.75;;;1.40;;
31210;SDS011;17836;50.948;3.946;2024-02-26T01:02:39;2.00;;;1.13;;
31210;SDS011;17836;50.948;3.946;2024-02-26T01:05:05;1.58;;;1.20;;
31210;SDS011;17836;50.948;3.946;2024-02-26T01:07:31;1.70;;;1.48;;
31210;SDS011;17836;50.948;3.946;2024-02-26T01:10:00;1.77;;;1.50;;
31210;SDS011;17836;50.948;3.946;2024-02-26T01:12:26;2.85;;;1.40;;
31210;SDS011;17836;50.948;3.946;2024-02-26T01:14:51;3.13;;;1.70;;
31210;SDS011;17836;50.948;3.946;2024-02-26T01:17:16;2.35;;;1.65;;
31210;SDS011;17836;50.948;3.946;2024-02-26T01:19:44;2.15;;;1.75;;
31210;SDS011;17836;50.948;3.946;2024-02-26T01:22:09;2.42;;;1.52;;
31210;SDS011;17836;50.948;3.946;2024-02-26T01:24:34;2.53;;;1.90;;
31210;SDS011;17836;50.948;3.946;2024-02-26T01:26:59;2.87;;;2.13;;
31210;SDS011;17836;50.948;3.946;2024-02-26T01:29:25;2.67;;;1.27;;
31210;SDS011;17836;50.948;3.946;2024-02-26T01:31:50;2.03;;;1.52;;
31210;SDS011;17836;50.948;3.946;2024-02-26T01:34:15;3.10;;;1.70;;
31210;SDS011;17836;50.948;3.946;2024-02-26T01:36:43;1.85;;;1.60;;
31210;SDS011;17836;50.948;3.946;2024-02-26T01:39:09;3.20;;;2.00;;
31210;SDS011;17836;50.948;3.946;2024-02-26T01:41:37;4.15;;;1.30;;
31210;SDS011;17836;50.948;3.946;2024-02-26T01:44:02;1.83;;;1.58;;
31210;SDS011;17836;50.948;3.946;2024-02-26T01:46:28;3.03;;;1.50;;
31210;SDS011;17836;50.948;3.946;2024-02-26T01:48:53;2.70;;;1.48;;
31210;SDS011;17836;50.948;3.946;2024-02-26T01:51:19;4.88;;;1.80;;
31210;SDS011;17836;50.948;3.946;2024-02-26T01:53:44;1.88;;;1.50;;
31210;SDS011;17836;50.948;3.946;2024-02-26T01:56:10;1.63;;;1.35;;
31210;SDS011;17836;50.948;3.946;2024-02-26T01:58:36;2.35;;;1.40;;
31210;SDS011;17836;50.948;3.946;2024-02-26T02:01:01;2.35;;;1.33;;
31210;SDS011;17836;50.948;3.946;2024-02-26T02:03:29;2.15;;;1.33;;
31210;SDS011;17836;50.948;3.946;2024-02-26T02:05:58;2.47;;;1.50;;
31210;SDS011;17836;50.948;3.946;2024-02-26T02:08:23;2.90;;;1.48;;
31210;SDS011;17836;50.948;3.946;2024-02-26T02:10:49;2.38;;;1.63;;
31210;SDS011;17836;50.948;3.946;2024-02-26T02:13:14;2.08;;;1.65;;
31210;SDS011;17836;50.948;3.946;2024-02-26T02:20:48;2.67;;;2.05;;
31210;SDS011;17836;50.948;3.946;2024-02-26T02:23:13;3.72;;;1.90;;
31210;SDS011;17836;50.948;3.946;2024-02-26T02:25:39;2.00;;;1.58;;
31210;SDS011;17836;50.948;3.946;2024-02-26T02:28:04;3.85;;;2.67;;
31210;SDS011;17836;50.948;3.946;2024-02-26T02:30:30;3.40;;;2.33;;
31210;SDS011;17836;50.948;3.946;2024-02-26T02:32:56;4.68;;;1.90;;
31210;SDS011;17836;50.948;3.946;2024-02-26T02:35:22;2.58;;;1.88;;
31210;SDS011;17836;50.948;3.946;2024-02-26T02:37:47;2.30;;;1.63;;
31210;SDS011;17836;50.948;3.946;2024-02-26T02:40:12;3.25;;;2.00;;
31210;SDS011;17836;50.948;3.946;2024-02-26T02:42:38;2.35;;;2.00;;
31210;SDS011;17836;50.948;3.946;2024-02-26T02:45:05;2.70;;;1.48;;
31210;SDS011;17836;50.948;3.946;2024-02-26T02:47:31;3.13;;;1.63;;
31210;SDS011;17836;50.948;3.946;2024-02-26T02:49:58;3.83;;;1.92;;
31210;SDS011;17836;50.948;3.946;2024-02-26T02:52:29;7.93;;;2.78;;
31210;SDS011;17836;50.948;3.946;2024-02-26T02:54:54;4.38;;;2.05;;
31210;SDS011;17836;50.948;3.946;2024-02-26T03:05:23;3.53;;;2.20;;
31210;SDS011;17836;50.948;3.946;2024-02-26T03:07:48;3.90;;;2.33;;
31210;SDS011;17836;50.948;3.946;2024-02-26T03:10:14;4.20;;;2.47;;
31210;SDS011;17836;50.948;3.946;2024-02-26T03:12:39;2.95;;;2.05;;
31210;SDS011;17836;50.948;3.946;2024-02-26T03:15:04;3.65;;;2.78;;
31210;SDS011;17836;50.948;3.946;2024-02-26T03:17:30;4.18;;;2.63;;
31210;SDS011;17836;50.948;3.946;2024-02-26T03:19:55;3.17;;;2.88;;
31210;SDS011;17836;50.948;3.946;2024-02-26T03:22:20;3.20;;;2.90;;
31210;SDS011;17836;50.948;3.946;2024-02-26T03:24:46;3.92;;;3.60;;
31210;SDS011;17836;50.948;3.946;2024-02-26T03:27:11;4.95;;;3.22;;
31210;SDS011;17836;50.948;3.946;2024-02-26T03:29:37;4.30;;;3.50;;
31210;SDS011;17836;50.948;3.946;2024-02-26T03:32:02;5.88;;;3.75;;
31210;SDS011;17836;50.948;3.946;2024-02-26T03:34:28;4.18;;;3.47;;
31210;SDS011;17836;50.948;3.946;2024-02-26T03:36:53;3.90;;;3.60;;
31210;SDS011;17836;50.948;3.946;2024-02-26T03:39:18;5.80;;;3.60;;
31210;SDS011;17836;50.948;3.946;2024-02-26T03:41:44;3.97;;;3.67;;
31210;SDS011;17836;50.948;3.946;2024-02-26T03:44:09;4.90;;;4.47;;
31210;SDS011;17836;50.948;3.946;2024-02-26T03:46:39;4.93;;;4.53;;
31210;SDS011;17836;50.948;3.946;2024-02-26T03:49:07;4.85;;;3.88;;
31210;SDS011;17836;50.948;3.946;2024-02-26T03:51:33;4.95;;;4.47;;
31210;SDS011;17836;50.948;3.946;2024-02-26T03:53:58;5.95;;;4.75;;
31210;SDS011;17836;50.948;3.946;2024-02-26T03:56:23;6.70;;;4.78;;
31210;SDS011;17836;50.948;3.946;2024-02-26T03:58:49;4.68;;;4.28;;
31210;SDS011;17836;50.948;3.946;2024-02-26T04:01:14;6.25;;;4.63;;
31210;SDS011;17836;50.948;3.946;2024-02-26T04:03:39;4.93;;;4.53;;
31210;SDS011;17836;50.948;3.946;2024-02-26T04:06:08;5.25;;;4.78;;
31210;SDS011;17836;50.948;3.946;2024-02-26T04:08:33;6.47;;;4.97;;
31210;SDS011;17836;50.948;3.946;2024-02-26T04:10:58;5.40;;;4.90;;
31210;SDS011;17836;50.948;3.946;2024-02-26T04:13:23;5.53;;;5.13;;
31210;SDS011;17836;50.948;3.946;2024-02-26T04:15:49;6.72;;;5.40;;
31210;SDS011;17836;50.948;3.946;2024-02-26T04:18:14;6.30;;;5.10;;
31210;SDS011;17836;50.948;3.946;2024-02-26T04:20:39;6.73;;;5.97;;
31210;SDS011;17836;50.948;3.946;2024-02-26T04:23:07;6.20;;;5.60;;
31210;SDS011;17836;50.948;3.946;2024-02-26T04:25:32;6.90;;;6.30;;
31210;SDS011;17836;50.948;3.946;2024-02-26T04:27:57;6.75;;;6.05;;
31210;SDS011;17836;50.948;3.946;2024-02-26T04:30:23;8.07;;;7.10;;
31210;SDS011;17836;50.948;3.946;2024-02-26T04:32:48;6.85;;;6.35;;
31210;SDS011;17836;50.948;3.946;2024-02-26T04:35:14;6.97;;;6.40;;
31210;SDS011;17836;50.948;3.946;2024-02-26T04:37:42;6.95;;;6.35;;
31210;SDS011;17836;50.948;3.946;2024-02-26T04:40:07;7.50;;;6.88;;
31210;SDS011;17836;50.948;3.946;2024-02-26T04:42:33;8.23;;;7.43;;
31210;SDS011;17836;50.948;3.946;2024-02-26T04:44:58;9.33;;;8.40;;
31210;SDS011;17836;50.948;3.946;2024-02-26T04:47:23;8.83;;;8.03;;
31210;SDS011;17836;50.948;3.946;2024-02-26T04:49:49;9.00;;;8.20;;
31210;SDS011;17836;50.948;3.946;2024-02-26T04:52:14;10.88;;;9.65;;
31210;SDS011;17836;50.948;3.946;2024-02-26T04:54:42;10.45;;;9.52;;
31210;SDS011;17836;50.948;3.946;2024-02-26T04:57:07;10.70;;;9.70;;
31210;SDS011;17836;50.948;3.946;2024-02-26T04:59:32;13.13;;;10.00;;
31210;SDS011;17836;50.948;3.946;2024-02-26T05:02:00;13.52;;;10.18;;
31210;SDS011;17836;50.948;3.946;2024-02-26T05:04:26;11.50;;;10.50;;
31210;SDS011;17836;50.948;3.946;2024-02-26T05:06:51;12.20;;;11.00;;
31210;SDS011;17836;50.948;3.946;2024-02-26T05:09:16;12.10;;;10.90;;
31210;SDS011;17836;50.948;3.946;2024-02-26T05:11:41;11.90;;;10.73;;
31210;SDS011;17836;50.948;3.946;2024-02-26T05:14:07;12.95;;;11.60;;
31210;SDS011;17836;50.948;3.946;2024-02-26T05:16:33;13.55;;;12.20;;
31210;SDS011;17836;50.948;3.946;2024-02-26T05:18:58;12.20;;;11.03;;
31210;SDS011;17836;50.948;3.946;2024-02-26T05:21:23;12.95;;;11.63;;
31210;SDS011;17836;50.948;3.946;2024-02-26T05:23:48;12.35;;;11.18;;
31210;SDS011;17836;50.948;3.946;2024-02-26T05:26:20;12.85;;;11.55;;
31210;SDS011;17836;50.948;3.946;2024-02-26T05:28:46;12.48;;;11.20;;
31210;SDS011;17836;50.948;3.946;2024-02-26T05:31:15;11.93;;;10.73;;
31210;SDS011;17836;50.948;3.946;2024-02-26T05:33:40;12.15;;;11.13;;
31210;SDS011;17836;50.948;3.946;2024-02-26T05:36:05;12.65;;;11.18;;
31210;SDS011;17836;50.948;3.946;2024-02-26T05:38:31;13.00;;;10.77;;
31210;SDS011;17836;50.948;3.946;2024-02-26T05:40:59;11.18;;;10.23;;
31210;SDS011;17836;50.948;3.946;2024-02-26T05:43:27;11.40;;;10.40;;
31210;SDS011;17836;50.948;3.946;2024-02-26T05:45:53;10.02;;;9.13;;
31210;SDS011;17836;50.948;3.946;2024-02-26T05:48:19;11.13;;;10.13;;
31210;SDS011;17836;50.948;3.946;2024-02-26T05:50:45;10.82;;;9.80;;
31210;SDS011;17836;50.948;3.946;2024-02-26T05:53:10;11.32;;;10.23;;
31210;SDS011;17836;50.948;3.946;2024-02-26T05:55:38;10.48;;;9.25;;
31210;SDS011;17836;50.948;3.946;2024-02-26T05:58:04;10.32;;;8.95;;
31210;SDS011;17836;50.948;3.946;2024-02-26T06:00:29;9.82;;;9.02;;
31210;SDS011;17836;50.948;3.946;2024-02-26T06:02:54;9.35;;;8.45;;
31210;SDS011;17836;50.948;3.946;2024-02-26T06:05:22;10.05;;;9.13;;
31210;SDS011;17836;50.948;3.946;2024-02-26T06:07:48;9.53;;;8.80;;
31210;SDS011;17836;50.948;3.946;2024-02-26T06:10:13;9.50;;;8.75;;
31210;SDS011;17836;50.948;3.946;2024-02-26T06:12:39;10.45;;;9.48;;
31210;SDS011;17836;50.948;3.946;2024-02-26T06:15:04;10.65;;;9.65;;
31210;SDS011;17836;50.948;3.946;2024-02-26T06:17:29;11.05;;;10.05;;
31210;SDS011;17836;50.948;3.946;2024-02-26T06:19:54;10.50;;;9.50;;
31210;SDS011;17836;50.948;3.946;2024-02-26T06:22:20;10.73;;;9.77;;
31210;SDS011;17836;50.948;3.946;2024-02-26T06:24:45;9.57;;;8.68;;
31210;SDS011;17836;50.948;3.946;2024-02-26T06:27:10;8.67;;;7.90;;
31210;SDS011;17836;50.948;3.946;2024-02-26T06:29:38;9.35;;;8.52;;
31210;SDS011;17836;50.948;3.946;2024-02-26T06:32:04;8.73;;;8.02;;
31210;SDS011;17836;50.948;3.946;2024-02-26T06:34:30;8.85;;;8.15;;
31210;SDS011;17836;50.948;3.946;2024-02-26T06:36:55;11.40;;;10.02;;
31210;SDS011;17836;50.948;3.946;2024-02-26T06:39:23;9.50;;;8.70;;
31210;SDS011;17836;50.948;3.946;2024-02-26T06:41:48;10.45;;;9.30;;
31210;SDS011;17836;50.948;3.946;2024-02-26T06:44:13;10.07;;;9.10;;
31210;SDS011;17836;50.948;3.946;2024-02-26T06:46:39;10.82;;;9.43;;
31210;SDS011;17836;50.948;3.946;2024-02-26T06:49:04;9.88;;;8.98;;
31210;SDS011;17836;50.948;3.946;2024-02-26T06:51:30;9.82;;;9.02;;
31210;SDS011;17836;50.948;3.946;2024-02-26T06:53:55;10.25;;;9.43;;
31210;SDS011;17836;50.948;3.946;2024-02-26T06:56:20;10.25;;;9.38;;
31210;SDS011;17836;50.948;3.946;2024-02-26T06:58:46;11.10;;;10.10;;
31210;SDS011;17836;50.948;3.946;2024-02-26T07:01:12;11.37;;;9.77;;
31210;SDS011;17836;50.948;3.946;2024-02-26T07:03:42;10.57;;;9.70;;
31210;SDS011;17836;50.948;3.946;2024-02-26T07:06:08;10.65;;;9.65;;
31210;SDS011;17836;50.948;3.946;2024-02-26T07:08:33;10.27;;;9.35;;
31210;SDS011;17836;50.948;3.946;2024-02-26T07:11:01;11.10;;;10.10;;
31210;SDS011;17836;50.948;3.946;2024-02-26T07:13:26;11.68;;;10.57;;
31210;SDS011;17836;50.948;3.946;2024-02-26T07:15:51;10.77;;;9.87;;
31210;SDS011;17836;50.948;3.946;2024-02-26T07:18:17;11.45;;;10.45;;
31210;SDS011;17836;50.948;3.946;2024-02-26T07:20:42;11.15;;;10.05;;
31210;SDS011;17836;50.948;3.946;2024-02-26T07:23:07;11.23;;;10.30;;
31210;SDS011;17836;50.948;3.946;2024-02-26T07:25:37;10.90;;;10.00;;
31210;SDS011;17836;50.948;3.946;2024-02-26T07:28:05;11.27;;;10.32;;
31210;SDS011;17836;50.948;3.946;2024-02-26T07:30:30;11.43;;;10.30;;
31210;SDS011;17836;50.948;3.946;2024-02-26T07:32:56;10.70;;;9.60;;
31210;SDS011;17836;50.948;3.946;2024-02-26T07:35:21;11.65;;;10.65;;
31210;SDS011;17836;50.948;3.946;2024-02-26T07:37:50;11.38;;;10.48;;
31210;SDS011;17836;50.948;3.946;2024-02-26T07:40:16;10.15;;;9.25;;
31210;SDS011;17836;50.948;3.946;2024-02-26T07:42:41;10.38;;;9.38;;
31210;SDS011;17836;50.948;3.946;2024-02-26T07:45:06;10.43;;;9.55;;
31210;SDS011;17836;50.948;3.946;2024-02-26T07:47:31;9.40;;;8.60;;
31210;SDS011;17836;50.948;3.946;2024-02-26T07:50:02;9.82;;;8.82;;
31210;SDS011;17836;50.948;3.946;2024-02-26T07:52:27;10.68;;;9.63;;
31210;SDS011;17836;50.948;3.946;2024-02-26T07:54:54;9.48;;;8.77;;
31210;SDS011;17836;50.948;3.946;2024-02-26T07:57:20;9.82;;;8.93;;
31210;SDS011;17836;50.948;3.946;2024-02-26T07:59:46;10.07;;;9.13;;
31210;SDS011;17836;50.948;3.946;2024-02-26T08:02:14;10.52;;;9.52;;
31210;SDS011;17836;50.948;3.946;2024-02-26T08:04:39;10.00;;;9.10;;
31210;SDS011;17836;50.948;3.946;2024-02-26T08:07:05;10.10;;;9.30;;
31210;SDS011;17836;50.948;3.946;2024-02-26T08:09:31;9.65;;;8.75;;
31210;SDS011;17836;50.948;3.946;2024-02-26T08:11:56;10.60;;;9.52;;
31210;SDS011;17836;50.948;3.946;2024-02-26T08:14:21;9.88;;;9.05;;
31210;SDS011;17836;50.948;3.946;2024-02-26T08:16:47;9.13;;;8.38;;
31210;SDS011;17836;50.948;3.946;2024-02-26T08:19:12;10.38;;;9.45;;
31210;SDS011;17836;50.948;3.946;2024-02-26T08:21:40;11.00;;;10.00;;
31210;SDS011;17836;50.948;3.946;2024-02-26T08:24:07;11.60;;;10.40;;
31210;SDS011;17836;50.948;3.946;2024-02-26T08:26:32;11.73;;;8.85;;
31210;SDS011;17836;50.948;3.946;2024-02-26T08:28:58;9.68;;;8.68;;
31210;SDS011;17836;50.948;3.946;2024-02-26T08:31:23;8.68;;;7.93;;
31210;SDS011;17836;50.948;3.946;2024-02-26T08:33:48;9.25;;;8.45;;
31210;SDS011;17836;50.948;3.946;2024-02-26T08:36:16;12.63;;;11.43;;
31210;SDS011;17836;50.948;3.946;2024-02-26T08:38:41;17.33;;;11.00;;
31210;SDS011;17836;50.948;3.946;2024-02-26T08:41:06;13.20;;;12.03;;
31210;SDS011;17836;50.948;3.946;2024-02-26T08:43:34;12.35;;;11.25;;
31210;SDS011;17836;50.948;3.946;2024-02-26T08:45:59;34.07;;;25.37;;
31210;SDS011;17836;50.948;3.946;2024-02-26T08:48:25;9.00;;;7.95;;
31210;SDS011;17836;50.948;3.946;2024-02-26T08:50:50;8.60;;;7.80;;
31210;SDS011;17836;50.948;3.946;2024-02-26T08:53:15;10.77;;;8.73;;
31210;SDS011;17836;50.948;3.946;2024-02-26T08:55:40;10.00;;;9.10;;
31210;SDS011;17836;50.948;3.946;2024-02-26T08:58:06;7.93;;;7.33;;
31210;SDS011;17836;50.948;3.946;2024-02-26T09:00:31;9.60;;;8.83;;
31210;SDS011;17836;50.948;3.946;2024-02-26T09:02:56;10.00;;;8.90;;
31210;SDS011;17836;50.948;3.946;2024-02-26T09:05:24;8.73;;;7.88;;
31210;SDS011;17836;50.948;3.946;2024-02-26T09:07:49;9.63;;;8.75;;
31210;SDS011;17836;50.948;3.946;2024-02-26T09:10:17;9.45;;;8.55;;
31210;SDS011;17836;50.948;3.946;2024-02-26T09:12:42;9.48;;;8.68;;
31210;SDS011;17836;50.948;3.946;2024-02-26T09:15:07;8.52;;;7.75;;
31210;SDS011;17836;50.948;3.946;2024-02-26T09:17:33;9.02;;;8.07;;
31210;SDS011;17836;50.948;3.946;2024-02-26T09:20:02;9.43;;;8.52;;
31210;SDS011;17836;50.948;3.946;2024-02-26T09:22:27;8.52;;;7.82;;
31210;SDS011;17836;50.948;3.946;2024-02-26T09:24:52;9.38;;;8.57;;
31210;SDS011;17836;50.948;3.946;2024-02-26T09:27:18;9.68;;;8.73;;
31210;SDS011;17836;50.948;3.946;2024-02-26T09:29:43;9.60;;;8.80;;
31210;SDS011;17836;50.948;3.946;2024-02-26T09:32:09;9.77;;;9.02;;
31210;SDS011;17836;50.948;3.946;2024-02-26T09:34:36;9.77;;;9.00;;
31210;SDS011;17836;50.948;3.946;2024-02-26T09:37:07;10.88;;;9.93;;
31210;SDS011;17836;50.948;3.946;2024-02-26T09:39:32;10.27;;;9.27;;
31210;SDS011;17836;50.948;3.946;2024-02-26T09:42:00;9.57;;;8.75;;
31210;SDS011;17836;50.948;3.946;2024-02-26T09:44:28;9.40;;;8.70;;
31210;SDS011;17836;50.948;3.946;2024-02-26T09:46:56;11.95;;;10.90;;
31210;SDS011;17836;50.948;3.946;2024-02-26T09:49:21;9.82;;;9.02;;
31210;SDS011;17836;50.948;3.946;2024-02-26T09:51:48;9.85;;;8.98;;
31210;SDS011;17836;50.948;3.946;2024-02-26T09:54:14;7.97;;;7.28;;
31210;SDS011;17836;50.948;3.946;2024-02-26T09:56:40;8.88;;;8.07;;
31210;SDS011;17836;50.948;3.946;2024-02-26T09:59:06;10.27;;;8.63;;
31210;SDS011;17836;50.948;3.946;2024-02-26T10:01:35;10.05;;;9.20;;
31210;SDS011;17836;50.948;3.946;2024-02-26T10:04:01;9.63;;;8.27;;
31210;SDS011;17836;50.948;3.946;2024-02-26T10:06:28;10.82;;;9.82;;
31210;SDS011;17836;50.948;3.946;2024-02-26T10:08:54;10.13;;;9.20;;
31210;SDS011;17836;50.948;3.946;2024-02-26T10:11:19;31.85;;;19.17;;
31210;SDS011;17836;50.948;3.946;2024-02-26T10:13:45;9.60;;;8.80;;
31210;SDS011;17836;50.948;3.946;2024-02-26T10:16:10;11.15;;;10.23;;
31210;SDS011;17836;50.948;3.946;2024-02-26T10:18:48;12.18;;;11.10;;
31210;SDS011;17836;50.948;3.946;2024-02-26T10:21:15;10.13;;;9.23;;
31210;SDS011;17836;50.948;3.946;2024-02-26T10:23:42;11.60;;;10.60;;
31210;SDS011;17836;50.948;3.946;2024-02-26T10:26:08;9.68;;;8.73;;
31210;SDS011;17836;50.948;3.946;2024-02-26T10:28:35;10.52;;;9.52;;
31210;SDS011;17836;50.948;3.946;2024-02-26T10:31:01;11.40;;;10.52;;
31210;SDS011;17836;50.948;3.946;2024-02-26T10:33:26;11.70;;;10.60;;
31210;SDS011;17836;50.948;3.946;2024-02-26T10:35:51;10.75;;;9.85;;
31210;SDS011;17836;50.948;3.946;2024-02-26T10:38:18;11.60;;;10.50;;
31210;SDS011;17836;50.948;3.946;2024-02-26T10:40:45;11.40;;;10.50;;
31210;SDS011;17836;50.948;3.946;2024-02-26T10:43:11;11.18;;;10.20;;
31210;SDS011;17836;50.948;3.946;2024-02-26T10:45:38;10.77;;;9.82;;
31210;SDS011;17836;50.948;3.946;2024-02-26T10:48:09;11.93;;;10.68;;
31210;SDS011;17836;50.948;3.946;2024-02-26T10:50:37;11.10;;;10.20;;
31210;SDS011;17836;50.948;3.946;2024-02-26T10:53:03;10.68;;;9.68;;
31210;SDS011;17836;50.948;3.946;2024-02-26T10:55:30;17.17;;;15.77;;
31210;SDS011;17836;50.948;3.946;2024-02-26T10:57:58;11.77;;;10.85;;
31210;SDS011;17836;50.948;3.946;2024-02-26T11:00:23;11.18;;;10.13;;
31210;SDS011;17836;50.948;3.946;2024-02-26T11:02:49;11.50;;;10.40;;
31210;SDS011;17836;50.948;3.946;2024-02-26T11:05:15;10.50;;;9.23;;
31210;SDS011;17836;50.948;3.946;2024-02-26T11:07:42;10.98;;;9.93;;
31210;SDS011;17836;50.948;3.946;2024-02-26T11:10:08;10.20;;;9.38;;
31210;SDS011;17836;50.948;3.946;2024-02-26T11:12:36;11.57;;;10.57;;
31210;SDS011;17836;50.948;3.946;2024-02-26T11:15:03;11.48;;;10.40;;
31210;SDS011;17836;50.948;3.946;2024-02-26T11:17:34;11.73;;;10.73;;
31210;SDS011;17836;50.948;3.946;2024-02-26T11:20:03;11.90;;;10.90;;
31210;SDS011;17836;50.948;3.946;2024-02-26T11:22:30;12.10;;;10.82;;
31210;SDS011;17836;50.948;3.946;2024-02-26T11:24:56;12.32;;;11.02;;
31210;SDS011;17836;50.948;3.946;2024-02-26T11:27:35;14.85;;;11.38;;
31210;SDS011;17836;50.948;3.946;2024-02-26T11:30:02;11.80;;;10.65;;
31210;SDS011;17836;50.948;3.946;2024-02-26T11:32:30;12.63;;;11.43;;
31210;SDS011;17836;50.948;3.946;2024-02-26T11:34:56;13.50;;;12.18;;
31210;SDS011;17836;50.948;3.946;2024-02-26T11:37:21;12.32;;;10.95;;
31210;SDS011;17836;50.948;3.946;2024-02-26T11:39:47;12.32;;;11.13;;
31210;SDS011;17836;50.948;3.946;2024-02-26T11:42:22;11.18;;;10.18;;
31210;SDS011;17836;50.948;3.946;2024-02-26T11:44:48;11.82;;;10.82;;
31210;SDS011;17836;50.948;3.946;2024-02-26T11:47:22;12.90;;;11.57;;
31210;SDS011;17836;50.948;3.946;2024-02-26T11:49:48;11.60;;;10.50;;
31210;SDS011;17836;50.948;3.946;2024-02-26T11:52:13;13.45;;;12.05;;
31210;SDS011;17836;50.948;3.946;2024-02-26T11:59:45;12.27;;;10.60;;
31210;SDS011;17836;50.948;3.946;2024-02-26T12:02:10;11.57;;;10.48;;
31210;SDS011;17836;50.948;3.946;2024-02-26T12:04:37;11.90;;;10.75;;
31210;SDS011;17836;50.948;3.946;2024-02-26T12:07:03;12.57;;;11.25;;
31210;SDS011;17836;50.948;3.946;2024-02-26T12:12:02;11.32;;;10.25;;
31210;SDS011;17836;50.948;3.946;2024-02-26T12:14:32;11.18;;;10.18;;
31210;SDS011;17836;50.948;3.946;2024-02-26T12:16:57;11.00;;;9.98;;
31210;SDS011;17836;50.948;3.946;2024-02-26T12:19:23;10.73;;;9.80;;
31210;SDS011;17836;50.948;3.946;2024-02-26T12:21:52;9.98;;;9.05;;
31210;SDS011;17836;50.948;3.946;2024-02-26T12:24:20;23.88;;;19.60;;
31210;SDS011;17836;50.948;3.946;2024-02-26T12:26:46;9.85;;;8.93;;
31210;SDS011;17836;50.948;3.946;2024-02-26T12:29:11;9.65;;;8.82;;
31210;SDS011;17836;50.948;3.946;2024-02-26T12:31:37;10.35;;;9.35;;
31210;SDS011;17836;50.948;3.946;2024-02-26T12:34:07;11.10;;;10.00;;
31210;SDS011;17836;50.948;3.946;2024-02-26T12:36:34;10.77;;;9.80;;
31210;SDS011;17836;50.948;3.946;2024-02-26T12:39:01;11.18;;;10.07;;
31210;SDS011;17836;50.948;3.946;2024-02-26T12:41:27;10.85;;;9.85;;
31210;SDS011;17836;50.948;3.946;2024-02-26T12:43:53;11.27;;;10.18;;
31210;SDS011;17836;50.948;3.946;2024-02-26T12:46:18;11.88;;;9.45;;
31210;SDS011;17836;50.948;3.946;2024-02-26T12:48:46;11.98;;;10.75;;
31210;SDS011;17836;50.948;3.946;2024-02-26T12:51:15;12.23;;;10.60;;
31210;SDS011;17836;50.948;3.946;2024-02-26T12:53:40;10.80;;;9.75;;
31210;SDS011;17836;50.948;3.946;2024-02-26T12:56:07;11.52;;;10.43;;
31210;SDS011;17836;50.948;3.946;2024-02-26T12:58:35;10.88;;;9.75;;
31210;SDS011;17836;50.948;3.946;2024-02-26T13:01:03;11.35;;;10.35;;
31210;SDS011;17836;50.948;3.946;2024-02-26T13:03:28;12.77;;;9.55;;
31210;SDS011;17836;50.948;3.946;2024-02-26T13:05:54;12.27;;;10.05;;
31210;SDS011;17836;50.948;3.946;2024-02-26T13:08:20;12.10;;;10.00;;
31210;SDS011;17836;50.948;3.946;2024-02-26T13:10:46;10.63;;;9.50;;
31210;SDS011;17836;50.948;3.946;2024-02-26T13:13:11;9.77;;;8.88;;
31210;SDS011;17836;50.948;3.946;2024-02-26T13:15:39;12.48;;;10.35;;
31210;SDS011;17836;50.948;3.946;2024-02-26T13:18:11;12.23;;;10.10;;
31210;SDS011;17836;50.948;3.946;2024-02-26T13:20:36;11.80;;;10.45;;
31210;SDS011;17836;50.948;3.946;2024-02-26T13:23:02;10.63;;;9.60;;
31210;SDS011;17836;50.948;3.946;2024-02-26T13:25:28;11.00;;;9.48;;
31210;SDS011;17836;50.948;3.946;2024-02-26T13:27:53;10.32;;;9.32;;
31210;SDS011;17836;50.948;3.946;2024-02-26T13:30:31;9.52;;;8.70;;
31210;SDS011;17836;50.948;3.946;2024-02-26T13:32:56;10.50;;;9.45;;
31210;SDS011;17836;50.948;3.946;2024-02-26T13:35:31;10.88;;;9.80;;
31210;SDS011;17836;50.948;3.946;2024-02-26T13:37:59;10.30;;;9.30;;
31210;SDS011;17836;50.948;3.946;2024-02-26T13:40:25;10.23;;;9.30;;
31210;SDS011;17836;50.948;3.946;2024-02-26T13:42:50;10.57;;;9.32;;
31210;SDS011;17836;50.948;3.946;2024-02-26T13:45:17;11.38;;;9.65;;
31210;SDS011;17836;50.948;3.946;2024-02-26T13:47:42;14.52;;;11.18;;
31210;SDS011;17836;50.948;3.946;2024-02-26T13:50:08;11.65;;;9.63;;
31210;SDS011;17836;50.948;3.946;2024-02-26T13:52:33;11.15;;;10.15;;
31210;SDS011;17836;50.948;3.946;2024-02-26T13:54:59;12.50;;;11.30;;
31210;SDS011;17836;50.948;3.946;2024-02-26T13:57:24;12.43;;;11.23;;
31210;SDS011;17836;50.948;3.946;2024-02-26T13:59:50;12.43;;;11.13;;
31210;SDS011;17836;50.948;3.946;2024-02-26T14:02:15;14.25;;;12.65;;
31210;SDS011;17836;50.948;3.946;2024-02-26T14:04:41;10.23;;;9.32;;
31210;SDS011;17836;50.948;3.946;2024-02-26T14:07:07;10.70;;;9.65;;
31210;SDS011;17836;50.948;3.946;2024-02-26T14:09:33;11.45;;;10.35;;
31210;SDS011;17836;50.948;3.946;2024-02-26T14:12:01;10.75;;;9.65;;
31210;SDS011;17836;50.948;3.946;2024-02-26T14:14:29;10.30;;;9.25;;
31210;SDS011;17836;50.948;3.946;2024-02-26T14:19:22;9.68;;;8.77;;
31210;SDS011;17836;50.948;3.946;2024-02-26T14:21:48;10.70;;;9.60;;
31210;SDS011;17836;50.948;3.946;2024-02-26T14:24:13;9.53;;;8.63;;
31210;SDS011;17836;50.948;3.946;2024-02-26T14:26:38;11.33;;;10.13;;
31210;SDS011;17836;50.948;3.946;2024-02-26T14:29:05;11.07;;;10.10;;
31210;SDS011;17836;50.948;3.946;2024-02-26T14:31:30;9.47;;;8.60;;
31210;SDS011;17836;50.948;3.946;2024-02-26T14:33:55;10.60;;;9.63;;
31210;SDS011;17836;50.948;3.946;2024-02-26T14:36:21;11.30;;;10.20;;
31210;SDS011;17836;50.948;3.946;2024-02-26T14:38:47;11.30;;;10.20;;
31210;SDS011;17836;50.948;3.946;2024-02-26T14:41:13;14.35;;;12.32;;
31210;SDS011;17836;50.948;3.946;2024-02-26T14:43:38;21.67;;;16.10;;
31210;SDS011;17836;50.948;3.946;2024-02-26T14:46:03;11.80;;;10.70;;
31210;SDS011;17836;50.948;3.946;2024-02-26T14:48:29;12.88;;;11.63;;
31210;SDS011;17836;50.948;3.946;2024-02-26T14:50:55;13.57;;;11.27;;
31210;SDS011;17836;50.948;3.946;2024-02-26T14:53:21;9.77;;;8.93;;